<?xml version="1.0" encoding="UTF-8"?>
<gpx version="1.1" creator="https://www.youtrack.es" xsi:schemaLocation="http://www.topografix.com/GPX/1/1 http://www.topografix.com/GPX/1/1/gpx.xsd http://www.garmin.com/xmlschemas/GpxExtensions/v3 http://www.garmin.com/xmlschemas/GpxExtensionsv3.xsd http://www.garmin.com/xmlschemas/TrackPointExtension/v1 http://www.garmin.com/xmlschemas/TrackPointExtensionv1.xsd" xmlns:gpxtpx="http://www.garmin.com/xmlschemas/TrackPointExtension/v1" xmlns:gpxx="http://www.garmin.com/xmlschemas/GpxExtensions/v3" xmlns:xsi="http://www.w3.org/2001/XMLSchema-instance">
  <metadata>
    <link href="https://www.youtrack.es">
      <text>YouTrack.es</text>
    </link>
    <time>2026-05-08T23:06:30Z</time>
  </metadata>
  <trk>
    <src>https://www.youtrack.es</src>
    <link href="https://www.youtrack.es/ruta/23182-linea-principal-distribucion">
      <text>YouTrack.es</text>
    </link>
    <trkseg>
      <trkpt lat="22.05903218" lon="-104.456941">
        <ele>1364.0000</ele>
        <time>2021-04-23T15:12:15Z</time>
      </trkpt>
      <trkpt lat="22.05898163" lon="-104.456818">
        <ele>1361.0000</ele>
        <time>2021-04-23T15:12:29Z</time>
      </trkpt>
      <trkpt lat="22.05892229" lon="-104.456738">
        <ele>1359.0000</ele>
        <time>2021-04-23T15:12:39Z</time>
      </trkpt>
      <trkpt lat="22.05882305" lon="-104.456627">
        <ele>1357.0000</ele>
        <time>2021-04-23T15:12:55Z</time>
      </trkpt>
      <trkpt lat="22.05874996" lon="-104.456547">
        <ele>1356.0000</ele>
        <time>2021-04-23T15:13:12Z</time>
      </trkpt>
      <trkpt lat="22.05874250" lon="-104.456540">
        <ele>1356.0000</ele>
        <time>2021-04-23T15:13:34Z</time>
      </trkpt>
      <trkpt lat="22.05866656" lon="-104.456480">
        <ele>1355.0000</ele>
        <time>2021-04-23T15:13:48Z</time>
      </trkpt>
      <trkpt lat="22.05854913" lon="-104.456411">
        <ele>1353.0000</ele>
        <time>2021-04-23T15:14:05Z</time>
      </trkpt>
      <trkpt lat="22.05851652" lon="-104.456395">
        <ele>1353.0000</ele>
        <time>2021-04-23T15:14:09Z</time>
      </trkpt>
      <trkpt lat="22.05845215" lon="-104.456373">
        <ele>1351.0000</ele>
        <time>2021-04-23T15:14:27Z</time>
      </trkpt>
      <trkpt lat="22.05840689" lon="-104.456342">
        <ele>1349.0000</ele>
        <time>2021-04-23T15:14:49Z</time>
      </trkpt>
      <trkpt lat="22.05835894" lon="-104.456308">
        <ele>1348.0000</ele>
        <time>2021-04-23T15:14:58Z</time>
      </trkpt>
      <trkpt lat="22.05834402" lon="-104.456288">
        <ele>1347.0000</ele>
        <time>2021-04-23T15:15:04Z</time>
      </trkpt>
      <trkpt lat="22.05835274" lon="-104.456284">
        <ele>1347.0000</ele>
        <time>2021-04-23T15:15:25Z</time>
      </trkpt>
      <trkpt lat="22.05835274" lon="-104.456284">
        <ele>1347.0000</ele>
        <time>2021-04-23T15:15:27Z</time>
      </trkpt>
      <trkpt lat="22.05835727" lon="-104.456287">
        <ele>1348.0000</ele>
        <time>2021-04-23T15:15:39Z</time>
      </trkpt>
      <trkpt lat="22.05826372" lon="-104.456207">
        <ele>1345.0000</ele>
        <time>2021-04-23T15:15:54Z</time>
      </trkpt>
      <trkpt lat="22.05821511" lon="-104.456184">
        <ele>1345.0000</ele>
        <time>2021-04-23T15:15:59Z</time>
      </trkpt>
      <trkpt lat="22.05807915" lon="-104.456061">
        <ele>1343.0000</ele>
        <time>2021-04-23T15:16:19Z</time>
      </trkpt>
      <trkpt lat="22.05806398" lon="-104.456048">
        <ele>1343.0000</ele>
        <time>2021-04-23T15:16:28Z</time>
      </trkpt>
      <trkpt lat="22.05803884" lon="-104.456057">
        <ele>1343.0000</ele>
        <time>2021-04-23T15:17:57Z</time>
      </trkpt>
      <trkpt lat="22.05797346" lon="-104.455965">
        <ele>1342.0000</ele>
        <time>2021-04-23T15:18:10Z</time>
      </trkpt>
      <trkpt lat="22.05796608" lon="-104.455947">
        <ele>1342.0000</ele>
        <time>2021-04-23T15:18:12Z</time>
      </trkpt>
      <trkpt lat="22.05788754" lon="-104.455760">
        <ele>1339.0000</ele>
        <time>2021-04-23T15:18:32Z</time>
      </trkpt>
      <trkpt lat="22.05781294" lon="-104.455608">
        <ele>1336.0000</ele>
        <time>2021-04-23T15:18:51Z</time>
      </trkpt>
      <trkpt lat="22.05778311" lon="-104.455571">
        <ele>1335.0000</ele>
        <time>2021-04-23T15:18:59Z</time>
      </trkpt>
      <trkpt lat="22.05778855" lon="-104.455567">
        <ele>1335.0000</ele>
        <time>2021-04-23T15:19:19Z</time>
      </trkpt>
      <trkpt lat="22.05771747" lon="-104.455506">
        <ele>1332.0000</ele>
        <time>2021-04-23T15:19:37Z</time>
      </trkpt>
      <trkpt lat="22.05765394" lon="-104.455412">
        <ele>1329.0000</ele>
        <time>2021-04-23T15:19:56Z</time>
      </trkpt>
      <trkpt lat="22.05760348" lon="-104.455326">
        <ele>1327.0000</ele>
        <time>2021-04-23T15:20:13Z</time>
      </trkpt>
      <trkpt lat="22.05754447" lon="-104.455264">
        <ele>1325.0000</ele>
        <time>2021-04-23T15:20:25Z</time>
      </trkpt>
      <trkpt lat="22.05749217" lon="-104.455177">
        <ele>1323.0000</ele>
        <time>2021-04-23T15:20:41Z</time>
      </trkpt>
      <trkpt lat="22.05749535" lon="-104.455170">
        <ele>1323.0000</ele>
        <time>2021-04-23T15:20:54Z</time>
      </trkpt>
      <trkpt lat="22.05744741" lon="-104.455084">
        <ele>1321.0000</ele>
        <time>2021-04-23T15:21:08Z</time>
      </trkpt>
      <trkpt lat="22.05741271" lon="-104.455014">
        <ele>1319.0000</ele>
        <time>2021-04-23T15:21:19Z</time>
      </trkpt>
      <trkpt lat="22.05735043" lon="-104.454947">
        <ele>1317.0000</ele>
        <time>2021-04-23T15:21:32Z</time>
      </trkpt>
      <trkpt lat="22.05727231" lon="-104.454849">
        <ele>1313.0000</ele>
        <time>2021-04-23T15:21:46Z</time>
      </trkpt>
      <trkpt lat="22.05723652" lon="-104.454759">
        <ele>1310.0000</ele>
        <time>2021-04-23T15:21:57Z</time>
      </trkpt>
      <trkpt lat="22.05723065" lon="-104.454746">
        <ele>1309.0000</ele>
        <time>2021-04-23T15:22:05Z</time>
      </trkpt>
      <trkpt lat="22.05717156" lon="-104.454605">
        <ele>1305.0000</ele>
        <time>2021-04-23T15:22:21Z</time>
      </trkpt>
      <trkpt lat="22.05715756" lon="-104.454583">
        <ele>1304.0000</ele>
        <time>2021-04-23T15:22:24Z</time>
      </trkpt>
      <trkpt lat="22.05706318" lon="-104.454455">
        <ele>1301.0000</ele>
        <time>2021-04-23T15:22:41Z</time>
      </trkpt>
      <trkpt lat="22.05697333" lon="-104.454385">
        <ele>1300.0000</ele>
        <time>2021-04-23T15:22:57Z</time>
      </trkpt>
      <trkpt lat="22.05695388" lon="-104.454358">
        <ele>1300.0000</ele>
        <time>2021-04-23T15:23:04Z</time>
      </trkpt>
      <trkpt lat="22.05694827" lon="-104.454363">
        <ele>1300.0000</ele>
        <time>2021-04-23T15:23:18Z</time>
      </trkpt>
      <trkpt lat="22.05693301" lon="-104.454344">
        <ele>1300.0000</ele>
        <time>2021-04-23T15:23:22Z</time>
      </trkpt>
      <trkpt lat="22.05686889" lon="-104.454192">
        <ele>1299.0000</ele>
        <time>2021-04-23T15:23:38Z</time>
      </trkpt>
      <trkpt lat="22.05681575" lon="-104.454056">
        <ele>1297.0000</ele>
        <time>2021-04-23T15:23:58Z</time>
      </trkpt>
      <trkpt lat="22.05677200" lon="-104.454013">
        <ele>1296.0000</ele>
        <time>2021-04-23T15:24:12Z</time>
      </trkpt>
      <trkpt lat="22.05672866" lon="-104.454011">
        <ele>1295.0000</ele>
        <time>2021-04-23T15:24:29Z</time>
      </trkpt>
      <trkpt lat="22.05672657" lon="-104.454010">
        <ele>1295.0000</ele>
        <time>2021-04-23T15:24:41Z</time>
      </trkpt>
      <trkpt lat="22.05669145" lon="-104.453990">
        <ele>1295.0000</ele>
        <time>2021-04-23T15:24:54Z</time>
      </trkpt>
      <trkpt lat="22.05664945" lon="-104.453921">
        <ele>1293.0000</ele>
        <time>2021-04-23T15:25:06Z</time>
      </trkpt>
      <trkpt lat="22.05659581" lon="-104.453874">
        <ele>1291.0000</ele>
        <time>2021-04-23T15:25:19Z</time>
      </trkpt>
      <trkpt lat="22.05656622" lon="-104.453827">
        <ele>1290.0000</ele>
        <time>2021-04-23T15:25:25Z</time>
      </trkpt>
      <trkpt lat="22.05653588" lon="-104.453791">
        <ele>1289.0000</ele>
        <time>2021-04-23T15:25:30Z</time>
      </trkpt>
      <trkpt lat="22.05651056" lon="-104.453730">
        <ele>1288.0000</ele>
        <time>2021-04-23T15:25:48Z</time>
      </trkpt>
      <trkpt lat="22.05647226" lon="-104.453714">
        <ele>1288.0000</ele>
        <time>2021-04-23T15:26:11Z</time>
      </trkpt>
      <trkpt lat="22.05646371" lon="-104.453661">
        <ele>1287.0000</ele>
        <time>2021-04-23T15:26:24Z</time>
      </trkpt>
      <trkpt lat="22.05644024" lon="-104.453641">
        <ele>1287.0000</ele>
        <time>2021-04-23T15:26:45Z</time>
      </trkpt>
      <trkpt lat="22.05641149" lon="-104.453626">
        <ele>1287.0000</ele>
        <time>2021-04-23T15:26:49Z</time>
      </trkpt>
      <trkpt lat="22.05635181" lon="-104.453581">
        <ele>1286.0000</ele>
        <time>2021-04-23T15:26:56Z</time>
      </trkpt>
      <trkpt lat="22.05632398" lon="-104.453562">
        <ele>1285.0000</ele>
        <time>2021-04-23T15:26:59Z</time>
      </trkpt>
      <trkpt lat="22.05629817" lon="-104.453549">
        <ele>1285.0000</ele>
        <time>2021-04-23T15:27:02Z</time>
      </trkpt>
      <trkpt lat="22.05628124" lon="-104.453538">
        <ele>1285.0000</ele>
        <time>2021-04-23T15:27:04Z</time>
      </trkpt>
      <trkpt lat="22.05625123" lon="-104.453529">
        <ele>1284.0000</ele>
        <time>2021-04-23T15:27:22Z</time>
      </trkpt>
      <trkpt lat="22.05625240" lon="-104.453528">
        <ele>1284.0000</ele>
        <time>2021-04-23T15:27:26Z</time>
      </trkpt>
      <trkpt lat="22.05625240" lon="-104.453523">
        <ele>1284.0000</ele>
        <time>2021-04-23T15:27:53Z</time>
      </trkpt>
      <trkpt lat="22.05618292" lon="-104.453463">
        <ele>1284.0000</ele>
        <time>2021-04-23T15:28:11Z</time>
      </trkpt>
      <trkpt lat="22.05618241" lon="-104.453463">
        <ele>1284.0000</ele>
        <time>2021-04-23T15:28:14Z</time>
      </trkpt>
      <trkpt lat="22.05610379" lon="-104.453322">
        <ele>1282.0000</ele>
        <time>2021-04-23T15:28:31Z</time>
      </trkpt>
      <trkpt lat="22.05606775" lon="-104.453264">
        <ele>1281.0000</ele>
        <time>2021-04-23T15:28:41Z</time>
      </trkpt>
      <trkpt lat="22.05602492" lon="-104.453172">
        <ele>1279.0000</ele>
        <time>2021-04-23T15:29:06Z</time>
      </trkpt>
      <trkpt lat="22.05601369" lon="-104.453145">
        <ele>1279.0000</ele>
        <time>2021-04-23T15:29:28Z</time>
      </trkpt>
      <trkpt lat="22.05601000" lon="-104.453132">
        <ele>1279.0000</ele>
        <time>2021-04-23T15:30:05Z</time>
      </trkpt>
      <trkpt lat="22.05597328" lon="-104.453048">
        <ele>1277.0000</ele>
        <time>2021-04-23T15:30:24Z</time>
      </trkpt>
      <trkpt lat="22.05591704" lon="-104.452956">
        <ele>1276.0000</ele>
        <time>2021-04-23T15:30:40Z</time>
      </trkpt>
      <trkpt lat="22.05585401" lon="-104.452855">
        <ele>1274.0000</ele>
        <time>2021-04-23T15:30:55Z</time>
      </trkpt>
      <trkpt lat="22.05575963" lon="-104.452746">
        <ele>1271.0000</ele>
        <time>2021-04-23T15:31:13Z</time>
      </trkpt>
      <trkpt lat="22.05574999" lon="-104.452729">
        <ele>1271.0000</ele>
        <time>2021-04-23T15:31:21Z</time>
      </trkpt>
      <trkpt lat="22.05574898" lon="-104.452726">
        <ele>1271.0000</ele>
        <time>2021-04-23T15:31:26Z</time>
      </trkpt>
      <trkpt lat="22.05568201" lon="-104.452664">
        <ele>1268.0000</ele>
        <time>2021-04-23T15:31:41Z</time>
      </trkpt>
      <trkpt lat="22.05557959" lon="-104.452617">
        <ele>1266.0000</ele>
        <time>2021-04-23T15:31:59Z</time>
      </trkpt>
      <trkpt lat="22.05546442" lon="-104.452563">
        <ele>1263.0000</ele>
        <time>2021-04-23T15:32:17Z</time>
      </trkpt>
      <trkpt lat="22.05539460" lon="-104.452516">
        <ele>1261.0000</ele>
        <time>2021-04-23T15:32:34Z</time>
      </trkpt>
      <trkpt lat="22.05538856" lon="-104.452514">
        <ele>1261.0000</ele>
        <time>2021-04-23T15:32:45Z</time>
      </trkpt>
      <trkpt lat="22.05536836" lon="-104.452503">
        <ele>1260.0000</ele>
        <time>2021-04-23T15:33:03Z</time>
      </trkpt>
      <trkpt lat="22.05525881" lon="-104.452417">
        <ele>1256.0000</ele>
        <time>2021-04-23T15:33:22Z</time>
      </trkpt>
      <trkpt lat="22.05520332" lon="-104.452357">
        <ele>1254.0000</ele>
        <time>2021-04-23T15:33:37Z</time>
      </trkpt>
      <trkpt lat="22.05508589" lon="-104.452344">
        <ele>1251.0000</ele>
        <time>2021-04-23T15:33:54Z</time>
      </trkpt>
      <trkpt lat="22.05498288" lon="-104.452278">
        <ele>1247.0000</ele>
        <time>2021-04-23T15:34:11Z</time>
      </trkpt>
      <trkpt lat="22.05488288" lon="-104.452256">
        <ele>1246.0000</ele>
        <time>2021-04-23T15:34:27Z</time>
      </trkpt>
      <trkpt lat="22.05487769" lon="-104.452256">
        <ele>1246.0000</ele>
        <time>2021-04-23T15:34:28Z</time>
      </trkpt>
      <trkpt lat="22.05487618" lon="-104.452256">
        <ele>1246.0000</ele>
        <time>2021-04-23T15:34:38Z</time>
      </trkpt>
      <trkpt lat="22.05478557" lon="-104.452229">
        <ele>1244.0000</ele>
        <time>2021-04-23T15:34:50Z</time>
      </trkpt>
      <trkpt lat="22.05468557" lon="-104.452202">
        <ele>1243.0000</ele>
        <time>2021-04-23T15:35:01Z</time>
      </trkpt>
      <trkpt lat="22.05469169" lon="-104.452176">
        <ele>1242.0000</ele>
        <time>2021-04-23T15:35:37Z</time>
      </trkpt>
      <trkpt lat="22.05469043" lon="-104.452172">
        <ele>1242.0000</ele>
        <time>2021-04-23T15:35:47Z</time>
      </trkpt>
      <trkpt lat="22.05467702" lon="-104.452167">
        <ele>1242.0000</ele>
        <time>2021-04-23T15:35:49Z</time>
      </trkpt>
      <trkpt lat="22.05461366" lon="-104.452140">
        <ele>1241.0000</ele>
        <time>2021-04-23T15:35:56Z</time>
      </trkpt>
      <trkpt lat="22.05453822" lon="-104.452116">
        <ele>1240.0000</ele>
        <time>2021-04-23T15:36:05Z</time>
      </trkpt>
      <trkpt lat="22.05441936" lon="-104.452057">
        <ele>1237.0000</ele>
        <time>2021-04-23T15:36:21Z</time>
      </trkpt>
      <trkpt lat="22.05428953" lon="-104.452012">
        <ele>1233.0000</ele>
        <time>2021-04-23T15:36:36Z</time>
      </trkpt>
      <trkpt lat="22.05422876" lon="-104.451973">
        <ele>1231.0000</ele>
        <time>2021-04-23T15:36:44Z</time>
      </trkpt>
      <trkpt lat="22.05422390" lon="-104.451977">
        <ele>1231.0000</ele>
        <time>2021-04-23T15:36:52Z</time>
      </trkpt>
      <trkpt lat="22.05414469" lon="-104.451966">
        <ele>1230.0000</ele>
        <time>2021-04-23T15:37:04Z</time>
      </trkpt>
      <trkpt lat="22.05407009" lon="-104.451937">
        <ele>1227.0000</ele>
        <time>2021-04-23T15:37:17Z</time>
      </trkpt>
      <trkpt lat="22.05403438" lon="-104.451918">
        <ele>1226.0000</ele>
        <time>2021-04-23T15:37:27Z</time>
      </trkpt>
      <trkpt lat="22.05397068" lon="-104.451873">
        <ele>1224.0000</ele>
        <time>2021-04-23T15:37:42Z</time>
      </trkpt>
      <trkpt lat="22.05394227" lon="-104.451812">
        <ele>1223.0000</ele>
        <time>2021-04-23T15:37:57Z</time>
      </trkpt>
      <trkpt lat="22.05390136" lon="-104.451763">
        <ele>1222.0000</ele>
        <time>2021-04-23T15:38:11Z</time>
      </trkpt>
      <trkpt lat="22.05384789" lon="-104.451714">
        <ele>1220.0000</ele>
        <time>2021-04-23T15:38:25Z</time>
      </trkpt>
      <trkpt lat="22.05381955" lon="-104.451702">
        <ele>1220.0000</ele>
        <time>2021-04-23T15:56:27Z</time>
      </trkpt>
      <trkpt lat="22.05381746" lon="-104.451676">
        <ele>1219.0000</ele>
        <time>2021-04-23T15:56:33Z</time>
      </trkpt>
      <trkpt lat="22.05379709" lon="-104.451614">
        <ele>1218.0000</ele>
        <time>2021-04-23T15:56:46Z</time>
      </trkpt>
      <trkpt lat="22.05375359" lon="-104.451544">
        <ele>1216.0000</ele>
        <time>2021-04-23T15:57:00Z</time>
      </trkpt>
      <trkpt lat="22.05369961" lon="-104.451479">
        <ele>1213.0000</ele>
        <time>2021-04-23T15:57:14Z</time>
      </trkpt>
      <trkpt lat="22.05363381" lon="-104.451419">
        <ele>1211.0000</ele>
        <time>2021-04-23T15:57:30Z</time>
      </trkpt>
      <trkpt lat="22.05354932" lon="-104.451347">
        <ele>1208.0000</ele>
        <time>2021-04-23T15:57:46Z</time>
      </trkpt>
      <trkpt lat="22.05349903" lon="-104.451298">
        <ele>1207.0000</ele>
        <time>2021-04-23T15:57:56Z</time>
      </trkpt>
      <trkpt lat="22.05349719" lon="-104.451299">
        <ele>1207.0000</ele>
        <time>2021-04-23T15:58:09Z</time>
      </trkpt>
      <trkpt lat="22.05343449" lon="-104.451226">
        <ele>1204.0000</ele>
        <time>2021-04-23T15:58:22Z</time>
      </trkpt>
      <trkpt lat="22.05340188" lon="-104.451196">
        <ele>1203.0000</ele>
        <time>2021-04-23T15:58:36Z</time>
      </trkpt>
      <trkpt lat="22.05339702" lon="-104.451192">
        <ele>1202.0000</ele>
        <time>2021-04-23T15:58:46Z</time>
      </trkpt>
      <trkpt lat="22.05337523" lon="-104.451195">
        <ele>1202.0000</ele>
        <time>2021-04-23T15:59:42Z</time>
      </trkpt>
      <trkpt lat="22.05332058" lon="-104.451098">
        <ele>1199.0000</ele>
        <time>2021-04-23T15:59:58Z</time>
      </trkpt>
      <trkpt lat="22.05326811" lon="-104.450985">
        <ele>1197.0000</ele>
        <time>2021-04-23T16:00:12Z</time>
      </trkpt>
      <trkpt lat="22.05324523" lon="-104.450845">
        <ele>1195.0000</ele>
        <time>2021-04-23T16:00:26Z</time>
      </trkpt>
      <trkpt lat="22.05317842" lon="-104.450767">
        <ele>1194.0000</ele>
        <time>2021-04-23T16:00:41Z</time>
      </trkpt>
      <trkpt lat="22.05317348" lon="-104.450756">
        <ele>1194.0000</ele>
        <time>2021-04-23T16:00:53Z</time>
      </trkpt>
      <trkpt lat="22.05313073" lon="-104.450682">
        <ele>1193.0000</ele>
        <time>2021-04-23T16:01:08Z</time>
      </trkpt>
      <trkpt lat="22.05311179" lon="-104.450627">
        <ele>1193.0000</ele>
        <time>2021-04-23T16:01:22Z</time>
      </trkpt>
      <trkpt lat="22.05307650" lon="-104.450536">
        <ele>1192.0000</ele>
        <time>2021-04-23T16:01:38Z</time>
      </trkpt>
      <trkpt lat="22.05306066" lon="-104.450519">
        <ele>1192.0000</ele>
        <time>2021-04-23T16:02:01Z</time>
      </trkpt>
      <trkpt lat="22.05302897" lon="-104.450453">
        <ele>1190.0000</ele>
        <time>2021-04-23T16:02:15Z</time>
      </trkpt>
      <trkpt lat="22.05300366" lon="-104.450446">
        <ele>1189.0000</ele>
        <time>2021-04-23T16:02:32Z</time>
      </trkpt>
      <trkpt lat="22.05299193" lon="-104.450437">
        <ele>1189.0000</ele>
        <time>2021-04-23T16:02:56Z</time>
      </trkpt>
      <trkpt lat="22.05294960" lon="-104.450409">
        <ele>1187.0000</ele>
        <time>2021-04-23T16:03:42Z</time>
      </trkpt>
      <trkpt lat="22.05293174" lon="-104.450393">
        <ele>1186.0000</ele>
        <time>2021-04-23T16:03:47Z</time>
      </trkpt>
      <trkpt lat="22.05293308" lon="-104.450393">
        <ele>1186.0000</ele>
        <time>2021-04-23T16:04:03Z</time>
      </trkpt>
      <trkpt lat="22.05282982" lon="-104.450370">
        <ele>1183.0000</ele>
        <time>2021-04-23T16:04:17Z</time>
      </trkpt>
      <trkpt lat="22.05280325" lon="-104.450314">
        <ele>1181.0000</ele>
        <time>2021-04-23T16:04:34Z</time>
      </trkpt>
      <trkpt lat="22.05279621" lon="-104.450311">
        <ele>1181.0000</ele>
        <time>2021-04-23T16:05:24Z</time>
      </trkpt>
      <trkpt lat="22.05275589" lon="-104.450268">
        <ele>1178.0000</ele>
        <time>2021-04-23T16:05:46Z</time>
      </trkpt>
      <trkpt lat="22.05272530" lon="-104.450240">
        <ele>1176.0000</ele>
        <time>2021-04-23T16:05:58Z</time>
      </trkpt>
      <trkpt lat="22.05269454" lon="-104.450209">
        <ele>1174.0000</ele>
        <time>2021-04-23T16:06:14Z</time>
      </trkpt>
      <trkpt lat="22.05268146" lon="-104.450198">
        <ele>1173.0000</ele>
        <time>2021-04-23T16:06:30Z</time>
      </trkpt>
    </trkseg>
  </trk>
</gpx>
